Main page
Satellite images 15-day forecastsClimateMarine weather Cyclones Lightning AirportsFAQ Newsletter About
Weather : Europe Africa North America South America Asia Australia-Oceania Others
Languages Contact

Mangalore, India

Bajpe

latitude: 12-55N, longitude: 074-53E, elevation: 102 m


METAR: missing
TAF: VOML 271200Z 2715/2724 32005KT 6000 NSC BECMG 2722/2723 11005KT 3000 HZ SCT010

Time: 21:15 (15:45 UTC)

Forecast

The report was made 3 hours and 45 minutes ago, at 12:00 UTC
Forecast valid from 27 at 15 UTC to 27 at 24 UTC
Wind 5 kt from the Northwest
Visibility: 6000 m
Becoming
from 27 at 22 UTC to 27 at 23 UTC
Wind 5 kt from the East/Southeast
Visibility: 3000 m
Scattered clouds at a height of 1000 ft
haze
The information on this site is subject to a disclaimer
Weather : Europe Africa North America South America Asia Australia-Oceania Others
Satellite images 15-day forecastsClimateMarine weather Cyclones Lightning AirportsFAQ Languages Contact Newsletter About